Aviation Digital Data Service (ADDS)

Output produced by METARs form (2306 UTC 17 December 2014)
found at http://aviationweather.gov/adds/metars/
 
KLFT 172253Z 00000KT 9SM CLR 15/04 A3017 RMK AO2 SLP215 T01500044